Data for 09/12/2014

Time Sea-Level Adjusted Pressure Absolute Pressure Temperature Relative Humidity Dew Point   
(mb) (inHg) (mb) (inHg) (C) (F) (%) (C) (F)
00:05 1029 30.39 858 25.34 -0.7 30.7 79 -4 24.8
00:10 1029 30.39 858 25.34 -0.7 30.7 79 -4 24.8
00:15 1029 30.39 858 25.34 -0.8 30.6 79 -4 24.8
00:20 1029 30.39 858 25.34 -0.8 30.6 79 -3.9 24.9
00:25 1029 30.39 858 25.34 -0.9 30.4 79 -4 24.8
00:30 1029 30.39 858 25.34 -0.8 30.5 79 -4 24.7
00:35 1029 30.39 858 25.34 -0.9 30.4 80 -3.9 24.9
00:40 1029 30.39 858 25.34 -0.9 30.3 79 -4 24.7
00:45 1029 30.39 858 25.34 -1 30.3 80 -4 24.8
00:50 1029 30.39 858 25.34 -1 30.1 80 -4.1 24.6
00:55 1029 30.39 858 25.34 -1.1 30.1 80 -4.1 24.6
01:00 1029 30.39 858 25.34 -1 30.2 79 -4.2 24.5
01:05 1029 30.39 858 25.34 -0.9 30.4 79 -4.2 24.5
01:10 1029 30.39 858 25.34 -0.8 30.6 78 -4.1 24.6
01:15 1029 30.39 858 25.34 -0.8 30.6 78 -4.1 24.6
01:20 1029 30.39 858 25.34 -0.8 30.6 77 -4.3 24.3
01:25 1029 30.39 858 25.34 -0.9 30.3 78 -4.3 24.3
01:30 1029 30.39 858 25.34 -1 30.2 78 -4.3 24.2
01:35 1029 30.39 858 25.34 -1 30.2 79 -4.3 24.3
01:40 1029 30.39 858 25.34 -1 30.1 78 -4.3 24.2
01:45 1029 30.39 858 25.34 -1.1 30 79 -4.3 24.3
01:50 1029 30.39 858 25.34 -1.3 29.7 79 -4.4 24.1
01:55 1028 30.36 858 25.34 -1.4 29.5 80 -4.4 24
02:00 1028 30.36 858 25.34 -1.6 29.2 80 -4.5 23.9
02:05 1028 30.36 858 25.34 -1.6 29.1 80 -4.6 23.8
02:10 1028 30.36 858 25.34 -1.6 29.2 80 -4.5 23.9
02:15 1028 30.36 858 25.34 -1.6 29.1 80 -4.7 23.6
02:20 1028 30.36 858 25.34 -1.5 29.3 79 -4.7 23.5
02:25 1028 30.36 857 25.31 -1.4 29.4 78 -4.7 23.5
02:30 1028 30.36 857 25.31 -1.4 29.5 78 -4.7 23.6
02:35 1028 30.36 857 25.31 -1.4 29.5 79 -4.6 23.6
02:40 1028 30.36 857 25.31 -1.3 29.6 78 -4.7 23.6
02:45 1028 30.36 857 25.31 -1.4 29.4 79 -4.6 23.6
02:50 1028 30.36 857 25.31 -1.6 29.2 79 -4.7 23.6
02:55 1028 30.36 857 25.31 -1.7 28.9 80 -4.8 23.4
03:00 1028 30.36 857 25.31 -1.7 28.9 79 -4.8 23.3
03:05 1028 30.36 857 25.31 -1.6 29.1 79 -4.9 23.3
03:10 1028 30.36 858 25.34 -1.5 29.2 78 -4.9 23.2
03:15 1028 30.36 858 25.34 -1.5 29.4 78 -4.8 23.3
03:20 1028 30.36 858 25.34 -1.5 29.4 78 -4.8 23.4
03:25 1028 30.36 858 25.34 -1.2 29.8 76 -4.9 23.2
03:30 1028 30.36 858 25.34 -1.3 29.6 78 -4.8 23.4
03:35 1028 30.36 858 25.34 -1.5 29.4 77 -4.9 23.1
03:40 1028 30.36 858 25.34 -1.4 29.5 78 -4.8 23.4
03:45 1028 30.36 857 25.31 -1.6 29.1 79 -4.8 23.3
03:50 1028 30.36 857 25.31 -1.6 29.1 79 -4.8 23.3
03:55 1028 30.36 857 25.31 -1.7 29 78 -5 23
04:00 1028 30.36 857 25.31 -1.6 29.2 78 -4.9 23.2
04:05 1028 30.36 857 25.31 -1.5 29.3 78 -4.9 23.2
04:10 1028 30.36 857 25.31 -1.6 29.2 78 -4.9 23.2
04:15 1028 30.36 857 25.31 -1.6 29.1 78 -4.9 23.2
04:20 1028 30.36 857 25.31 -1.8 28.8 79 -5 23.1
04:25 1028 30.36 857 25.31 -1.8 28.8 78 -5.1 22.8
04:30 1028 30.36 857 25.31 -1.8 28.8 78 -5.1 22.9
04:35 1028 30.36 857 25.31 -1.7 29 78 -5 23.1
04:40 1028 30.36 857 25.31 -1.8 28.8 79 -5 23
04:45 1028 30.36 857 25.31 -1.8 28.8 79 -4.9 23.1
04:50 1028 30.36 857 25.31 -2 28.4 80 -5.1 22.9
04:55 1028 30.36 857 25.31 -2.2 28.1 80 -5.2 22.7
05:00 1028 30.36 857 25.31 -2.3 27.8 81 -5.2 22.6
05:05 1028 30.36 857 25.31 -2.4 27.7 81 -5.2 22.6
05:10 1028 30.36 857 25.31 -2.5 27.6 81 -5.3 22.5
05:15 1028 30.36 857 25.31 -2.5 27.6 81 -5.3 22.5
05:20 1028 30.36 857 25.31 -2.5 27.5 81 -5.4 22.3
05:25 1028 30.36 857 25.31 -2.4 27.6 81 -5.3 22.5
05:30 1028 30.36 857 25.31 -2.5 27.6 81 -5.3 22.5
05:35 1028 30.36 857 25.31 -2.5 27.6 81 -5.4 22.3
05:40 1028 30.36 857 25.31 -2.4 27.7 80 -5.4 22.4
05:45 1028 30.36 857 25.31 -2.3 27.9 80 -5.4 22.3
05:50 1028 30.36 857 25.31 -2.3 27.8 80 -5.3 22.4
05:55 1028 30.36 857 25.31 -2.5 27.6 80 -5.5 22.2
06:00 1028 30.36 857 25.31 -2.4 27.6 80 -5.5 22.1
06:05 1028 30.36 857 25.31 -2.3 27.8 79 -5.5 22.2
06:10 1028 30.36 857 25.31 -2.4 27.8 80 -5.4 22.3
06:15 1028 30.36 857 25.31 -2.3 27.8 78 -5.6 21.9
06:20 1028 30.36 857 25.31 -1.8 28.7 76 -5.5 22.1
06:25 1027 30.33 857 25.31 -1.6 29.1 76 -5.4 22.4
06:30 1027 30.33 857 25.31 -1.5 29.3 75 -5.4 22.4
06:35 1027 30.33 857 25.31 -1.5 29.3 75 -5.4 22.3
06:40 1027 30.33 857 25.31 -1.5 29.3 74 -5.6 22
06:45 1027 30.33 857 25.31 -1.2 29.9 72 -5.5 22.1
06:50 1027 30.33 857 25.31 -0.9 30.5 71 -5.4 22.2
06:55 1027 30.33 857 25.31 -0.6 30.9 70 -5.4 22.2
07:00 1027 30.33 856 25.28 -0.4 31.4 68 -5.6 22
07:05 1027 30.33 856 25.28 -0.4 31.3 69 -5.4 22.4
07:10 1027 30.33 856 25.28 -0.3 31.5 69 -5.3 22.5
07:15 1027 30.33 856 25.28 0 32 68 -5.3 22.5
07:20 1027 30.33 856 25.28 0.1 32.2 69 -5 23
07:25 1027 30.33 856 25.28 -0 32 69 -5.1 22.8
07:30 1027 30.33 856 25.28 0.2 32.3 68 -5.1 22.8
07:35 1027 30.33 856 25.28 0.5 32.9 66 -5 22.9
07:40 1027 30.33 856 25.28 0.8 33.5 64 -5.3 22.5
07:45 1027 30.33 856 25.28 1.3 34.3 62 -5.1 22.8
07:50 1027 30.33 856 25.28 1.8 35.3 59 -5.3 22.5
07:55 1027 30.33 856 25.28 2.3 36.1 58 -5.1 22.8
08:00 1027 30.33 856 25.28 2.4 36.4 57 -5.2 22.7
08:05 1027 30.33 856 25.28 2.8 37.1 56 -5.2 22.7
08:10 1027 30.33 856 25.28 3.4 38.2 54 -5.1 22.8
08:15 1027 30.33 856 25.28 3.5 38.3 56 -4.4 24.1
08:20 1027 30.33 856 25.28 3 37.5 56 -4.8 23.3
08:25 1027 30.33 856 25.28 3.7 38.7 53 -5 23
08:30 1027 30.33 856 25.28 3.8 38.8 55 -4.4 24.1
08:35 1027 30.33 856 25.28 3.8 38.8 55 -4.6 23.8
08:40 1027 30.33 856 25.28 3.7 38.7 54 -4.7 23.5
08:45 1027 30.33 856 25.28 3.8 38.8 53 -5 23
08:50 1027 30.33 856 25.28 4.8 40.6 49 -5 23
08:55 1027 30.33 856 25.28 5.2 41.4 49 -4.6 23.8
09:00 1027 30.33 856 25.28 4.6 40.3 49 -5.1 22.9
09:05 1027 30.33 856 25.28 5 41 52 -4.1 24.6
09:10 1026 30.3 856 25.28 5.3 41.6 49 -4.5 23.8
09:15 1027 30.33 856 25.28 6.3 43.3 45 -4.7 23.6
09:20 1026 30.3 856 25.28 7 44.6 43 -4.8 23.3
09:25 1026 30.3 856 25.28 6.5 43.7 46 -4.2 24.4
09:30 1026 30.3 855 25.25 5.9 42.6 46 -4.9 23.2
09:35 1026 30.3 855 25.25 7.3 45.1 42 -4.9 23.2
09:40 1026 30.3 855 25.25 7.7 45.8 42 -4.5 23.9
09:45 1026 30.3 855 25.25 6.9 44.3 46 -4 24.7
09:50 1026 30.3 855 25.25 7.5 45.4 43 -4.4 24
09:55 1026 30.3 855 25.25 8.2 46.8 41 -4.3 24.3
10:00 1026 30.3 855 25.25 8.2 46.8 41 -4.1 24.6
10:05 1026 30.3 855 25.25 8.4 47.2 41 -3.9 25
10:10 1026 30.3 855 25.25 7.7 45.9 43 -4.2 24.5
10:15 1026 30.3 855 25.25 7.8 46 42 -4.4 24.1
10:20 1026 30.3 855 25.25 8.4 47 39 -4.6 23.7
10:25 1026 30.3 855 25.25 8.6 47.5 40 -4.3 24.3
10:30 1026 30.3 855 25.25 9 48.3 39 -4 24.8
10:35 1026 30.3 855 25.25 9.5 49 36 -4.8 23.4
10:40 1026 30.3 855 25.25 9.8 49.6 35 -4.9 23.2
10:45 1025 30.27 855 25.25 10 50.1 34 -5 23
10:50 1025 30.27 855 25.25 9.7 49.4 35 -5 22.9
10:55 1025 30.27 854 25.22 9.2 48.5 35 -5.3 22.4
11:00 1025 30.27 854 25.22 10.1 50.2 34 -5.1 22.8
11:05 1025 30.27 854 25.22 10.6 51 33 -4.8 23.3
11:10 1025 30.27 854 25.22 10.6 51.1 32 -5.3 22.4
11:15 1025 30.27 854 25.22 10.2 50.4 35 -4.6 23.7
11:20 1025 30.27 854 25.22 10.1 50.3 34 -4.9 23.1
11:25 1025 30.27 854 25.22 10.6 51.1 32 -5.3 22.4
11:30 1025 30.27 854 25.22 11.6 52.9 30 -5.3 22.4
11:35 1025 30.27 854 25.22 11.1 52 32 -4.9 23.2
11:40 1025 30.27 854 25.22 10.8 51.4 29 -6.3 20.6
11:45 1025 30.27 854 25.22 12 53.7 29 -5.5 22.1
11:50 1024 30.24 854 25.22 12.8 55 27 -5.9 21.5
11:55 1024 30.24 854 25.22 12.9 55.3 27 -5.4 22.2
12:00 1024 30.24 853 25.19 12.9 55.3 26 -5.9 21.4
12:05 1024 30.24 853 25.19 12.8 55.1 26 -6.1 21.1
12:10 1024 30.24 853 25.19 12.1 53.7 27 -6.5 20.3
12:15 1024 30.24 853 25.19 13 55.4 26 -6.1 21
12:20 1024 30.24 853 25.19 12.9 55.1 30 -4.2 24.4
12:25 1024 30.24 853 25.19 11.4 52.6 29 -6 21.2
12:30 1024 30.24 853 25.19 12.4 54.3 28 -5.5 22.2
12:35 1023 30.21 853 25.19 12.2 53.9 27 -6.4 20.4
12:40 1023 30.21 852 25.16 12 53.6 29 -5.7 21.8
12:45 1023 30.21 852 25.16 13.2 55.7 21 -8.9 15.9
12:50 1023 30.21 852 25.16 13 55.3 22 -8.1 17.4
12:55 1023 30.21 852 25.16 14.2 57.5 25 -5.4 22.2
13:00 1023 30.21 852 25.16 15 58.9 23 -5.7 21.8
13:05 1023 30.21 852 25.16 14.9 58.8 25 -4.9 23.2
13:10 1023 30.21 852 25.16 14.3 57.8 24 -6 21.2
13:15 1023 30.21 852 25.16 14.8 58.6 19 -8.8 16.1
13:20 1023 30.21 852 25.16 14.2 57.6 23 -6.5 20.2
13:25 1023 30.21 852 25.16 15.1 59.1 22 -6.5 20.3
13:30 1023 30.21 852 25.16 15.5 59.8 15 -11 12.2
13:35 1022 30.18 852 25.16 15.4 59.8 20 -7.2 19.1
13:40 1022 30.18 852 25.16 15.5 59.8 21 -6.9 19.7
13:45 1022 30.18 851 25.13 14.3 57.8 17 -10.2 13.6
13:50 1022 30.18 851 25.13 14.1 57.3 24 -6.2 20.9
13:55 1022 30.18 851 25.13 14.4 58 21 -7.3 18.9
14:00 1022 30.18 851 25.13 15.9 60.6 21 -6.1 21
14:05 1022 30.18 851 25.13 16.7 62.1 18 -7.8 18
14:10 1022 30.18 851 25.13 16.6 62 18 -7.5 18.5
14:15 1022 30.18 851 25.13 16.7 62 15 -9.9 14.2
14:20 1022 30.18 851 25.13 16.5 61.7 14 -11.1 12.1
14:25 1022 30.18 851 25.13 16.6 61.8 14 -11.4 11.4
14:30 1022 30.18 851 25.13 16.6 61.8 14 -11.1 12
14:35 1021 30.15 851 25.13 16.2 61.2 16 -9.3 15.3
14:40 1021 30.15 851 25.13 16.8 62.2 13 -11.4 11.5
14:45 1021 30.15 850 25.1 16.8 62.3 14 -11.2 11.8
14:50 1021 30.15 850 25.1 17.4 63.3 13 -11 12.1
14:55 1021 30.15 850 25.1 16.5 61.7 14 -11.3 11.7
15:00 1021 30.15 850 25.1 17.5 63.5 13 -10.9 12.4
15:05 1021 30.15 850 25.1 18.2 64.7 12 -11.3 11.7
15:10 1021 30.15 850 25.1 18.3 65 12 -11.6 11.2
15:15 1021 30.15 850 25.1 17.9 64.3 14 -10.2 13.7
15:20 1021 30.15 850 25.1 18 64.4 13 -11 12.2
15:25 1021 30.15 850 25.1 18.5 65.3 13 -10.7 12.7
15:30 1021 30.15 850 25.1 17.5 63.5 13 -10.8 12.5
15:35 1021 30.15 850 25.1 17.2 63 14 -10.5 13.2
15:40 1020 30.12 850 25.1 17.3 63.2 14 -10.2 13.6
15:45 1020 30.12 850 25.1 16.7 62.1 13 -11.8 10.8
15:50 1020 30.12 850 25.1 16.9 62.4 13 -11.3 11.6
15:55 1020 30.12 850 25.1 17.5 63.4 13 -11.3 11.7
16:00 1020 30.12 850 25.1 18.5 65.3 13 -10.3 13.5
16:05 1020 30.12 850 25.1 18.6 65.4 12 -11 12.2
16:10 1020 30.12 849 25.07 17.8 64 13 -11.2 11.9
16:15 1020 30.12 849 25.07 17.1 62.8 13 -11.5 11.4
16:20 1020 30.12 849 25.07 17.5 63.4 14 -10.7 12.7
16:25 1020 30.12 849 25.07 17.7 63.9 12 -11.7 10.9
16:30 1020 30.12 849 25.07 17.5 63.5 12 -11.8 10.7
16:35 1020 30.12 849 25.07 17.2 63 13 -11.8 10.8
16:40 1020 30.12 849 25.07 17.4 63.3 12 -12.1 10.2
16:45 1020 30.12 849 25.07 18.1 64.5 13 -11.1 12
16:50 1020 30.12 849 25.07 18.4 65.1 13 -10.5 13.1
16:55 1020 30.12 849 25.07 18.5 65.3 12 -10.9 12.3
17:00 1020 30.12 849 25.07 17.8 64 12 -11.5 11.3
17:05 1020 30.12 849 25.07 17.3 63.2 12 -11.8 10.7
17:10 1020 30.12 849 25.07 17.3 63.1 13 -11.5 11.2
17:15 1020 30.12 849 25.07 17.4 63.3 13 -11.1 12.1
17:20 1020 30.12 849 25.07 17.3 63.1 14 -10.6 12.9
17:25 1020 30.12 849 25.07 17.1 62.7 14 -10.5 13
17:30 1020 30.12 849 25.07 17 62.5 15 -10.1 13.9
17:35 1020 30.12 849 25.07 16.7 62.1 16 -9.2 15.5
17:40 1020 30.12 849 25.07 16.5 61.7 19 -7.1 19.2
17:45 1019 30.09 849 25.07 16.5 61.6 20 -6.5 20.3
17:50 1019 30.09 849 25.07 16.3 61.3 21 -6.3 20.6
17:55 1019 30.09 849 25.07 16.1 60.9 21 -5.9 21.4
18:00 1019 30.09 848 25.04 15.9 60.6 23 -5.2 22.6
18:05 1019 30.09 848 25.04 15.6 60 23 -5.2 22.7
18:10 1019 30.09 848 25.04 15.4 59.8 25 -4.3 24.3
18:15 1019 30.09 848 25.04 15.3 59.5 25 -4.7 23.6
18:20 1019 30.09 848 25.04 14.9 58.9 26 -4.4 24.1
18:25 1019 30.09 848 25.04 14.6 58.3 28 -3.8 25.2
18:30 1019 30.09 848 25.04 14.4 57.8 29 -3.4 25.9
18:35 1019 30.09 848 25.04 14.2 57.5 30 -3.2 26.2
18:40 1019 30.09 848 25.04 13.9 57.1 30 -3.5 25.8
18:45 1019 30.09 848 25.04 13.8 56.8 31 -2.8 26.9
18:50 1019 30.09 848 25.04 13.5 56.3 32 -3 26.6
18:55 1019 30.09 848 25.04 13.2 55.8 33 -2.7 27.1
19:00 1019 30.09 848 25.04 12.5 54.5 39 -1.1 30
19:05 1019 30.09 848 25.04 11.7 53 42 -0.7 30.8
19:10 1019 30.09 848 25.04 11.2 52.1 45 -0.2 31.7
19:15 1019 30.09 848 25.04 10.7 51.2 48 0.3 32.5
19:20 1019 30.09 848 25.04 10.3 50.5 50 0.3 32.6
19:25 1019 30.09 848 25.04 9.9 49.8 51 0.3 32.5
19:30 1019 30.09 848 25.04 9.7 49.4 51 0 32
19:35 1019 30.09 848 25.04 9.5 49.2 50 -0.3 31.4
19:40 1019 30.09 848 25.04 9.3 48.8 51 -0.1 31.7
19:45 1019 30.09 848 25.04 8.8 47.9 54 0.1 32.2
19:50 1019 30.09 849 25.07 8.3 46.9 56 -0.1 31.9
19:55 1019 30.09 849 25.07 8.4 47.1 49 -1.7 29
20:00 1019 30.09 849 25.07 8.8 47.9 46 -2 28.4
20:05 1019 30.09 849 25.07 8.9 48.1 48 -1.6 29.2
20:10 1019 30.09 849 25.07 8.8 47.8 48 -1.5 29.4
20:15 1019 30.09 849 25.07 8.8 47.9 47 -1.9 28.6
20:20 1019 30.09 849 25.07 9 48.1 47 -1.6 29.1
20:25 1019 30.09 849 25.07 8.7 47.7 49 -1.3 29.6
20:30 1019 30.09 849 25.07 8.5 47.3 49 -1.7 28.9
20:35 1019 30.09 849 25.07 8.4 47.2 49 -1.5 29.3
20:40 1019 30.09 849 25.07 8.5 47.2 49 -1.7 28.9
20:45 1020 30.12 849 25.07 8.7 47.7 49 -1.3 29.6
20:50 1020 30.12 849 25.07 8.5 47.3 50 -1.2 29.9
20:55 1020 30.12 849 25.07 8.5 47.2 51 -1.2 29.9
21:00 1020 30.12 849 25.07 8.4 47.2 50 -1.4 29.5
21:05 1019 30.09 849 25.07 8.5 47.2 49 -1.5 29.3
21:10 1019 30.09 849 25.07 8.6 47.6 48 -1.8 28.8
21:15 1020 30.12 849 25.07 8.7 47.7 48 -1.6 29.1
21:20 1020 30.12 849 25.07 8.6 47.6 48 -1.7 29
21:25 1020 30.12 849 25.07 8.6 47.5 49 -1.6 29.2
21:30 1020 30.12 849 25.07 8.4 47.2 50 -1.4 29.5
21:35 1020 30.12 849 25.07 8.4 47 50 -1.4 29.4
21:40 1020 30.12 849 25.07 8.2 46.7 51 -1.3 29.6
21:45 1020 30.12 849 25.07 7.9 46.2 53 -1 30.2
21:50 1020 30.12 849 25.07 7.6 45.7 53 -1.3 29.7
21:55 1020 30.12 849 25.07 7.6 45.6 54 -1 30.2
22:00 1020 30.12 849 25.07 7.4 45.3 55 -0.9 30.4
22:05 1020 30.12 849 25.07 7.2 44.9 57 -0.7 30.7
22:10 1020 30.12 849 25.07 6.8 44.3 58 -0.8 30.5
22:15 1020 30.12 849 25.07 6.9 44.4 57 -1.1 30
22:20 1020 30.12 849 25.07 7.1 44.8 55 -1.2 29.8
22:25 1020 30.12 849 25.07 7.2 45 56 -0.9 30.3
22:30 1020 30.12 849 25.07 6.8 44.3 57 -1.1 30
22:35 1020 30.12 849 25.07 6.2 43.1 59 -1.2 29.9
22:40 1020 30.12 849 25.07 6 42.9 58 -1.6 29.2
22:45 1020 30.12 849 25.07 6.3 43.4 56 -1.8 28.7
22:50 1020 30.12 850 25.1 6.8 44.2 54 -2 28.5
22:55 1020 30.12 850 25.1 7.1 44.7 53 -1.8 28.7
23:00 1020 30.12 850 25.1 6.9 44.3 54 -1.7 28.9
23:05 1020 30.12 850 25.1 6.5 43.8 54 -2.2 28
23:10 1021 30.15 850 25.1 6.6 43.9 54 -1.9 28.5
23:15 1021 30.15 850 25.1 6.7 44.1 54 -2 28.4
23:20 1021 30.15 850 25.1 6.6 43.9 55 -1.7 28.9
23:25 1021 30.15 850 25.1 6.4 43.5 56 -1.8 28.8
23:30 1021 30.15 850 25.1 6.3 43.3 57 -1.7 29
23:35 1021 30.15 850 25.1 5.9 42.7 59 -1.5 29.2
23:40 1021 30.15 850 25.1 5.6 42.1 60 -1.6 29.2
23:45 1021 30.15 850 25.1 5.5 41.9 59 -1.8 28.8
23:50 1021 30.15 850 25.1 5.6 42 60 -1.6 29
23:55 1021 30.15 850 25.1 5.3 41.6 60 -1.9 28.6
24:00 1021 30.15 850 25.1 5.2 41.4 61 -1.7 29